createdAt,value
2022-10-10T00:00:36.338Z,100
2022-10-10T00:01:36.429Z,100
2022-10-10T00:02:36.345Z,100
2022-10-10T00:03:36.368Z,100
2022-10-10T00:04:36.313Z,100
2022-10-10T00:05:36.366Z,100
2022-10-10T00:06:36.381Z,100
2022-10-10T00:07:36.741Z,100
2022-10-10T00:08:36.291Z,100
2022-10-10T00:09:36.407Z,100
2022-10-10T00:10:36.267Z,100
2022-10-10T00:11:36.298Z,100
2022-10-10T00:12:36.325Z,100
2022-10-10T00:13:36.283Z,100
2022-10-10T00:14:36.440Z,100
2022-10-10T00:15:36.336Z,100
2022-10-10T00:16:36.342Z,100
2022-10-10T00:17:36.370Z,100
2022-10-10T00:18:36.311Z,100
2022-10-10T00:19:36.378Z,100
2022-10-10T00:20:36.371Z,100
2022-10-10T00:21:36.371Z,100
2022-10-10T00:22:36.385Z,100
2022-10-10T00:23:36.383Z,100
2022-10-10T00:24:36.288Z,100
2022-10-10T00:25:36.271Z,100
2022-10-10T00:26:36.320Z,100
2022-10-10T00:27:36.273Z,100
2022-10-10T00:28:36.312Z,100
2022-10-10T00:29:36.369Z,100
2022-10-10T00:30:36.430Z,100
2022-10-10T00:31:36.340Z,100
2022-10-10T00:32:36.342Z,100
2022-10-10T00:33:36.388Z,100
2022-10-10T00:34:36.365Z,100
2022-10-10T00:35:36.269Z,100
2022-10-10T00:36:36.434Z,100
2022-10-10T00:37:36.544Z,100
2022-10-10T00:38:36.532Z,100
2022-10-10T00:39:36.418Z,100
2022-10-10T00:40:36.514Z,100
2022-10-10T00:41:36.413Z,100
2022-10-10T00:42:36.653Z,100
2022-10-10T00:43:36.620Z,100
2022-10-10T00:44:36.748Z,100
2022-10-10T00:45:36.631Z,100
2022-10-10T00:46:36.318Z,100
2022-10-10T00:47:36.268Z,100
2022-10-10T00:48:36.368Z,100
2022-10-10T00:49:36.284Z,100
2022-10-10T00:50:36.368Z,100
2022-10-10T00:51:36.365Z,100
2022-10-10T00:52:36.368Z,100
2022-10-10T00:53:36.380Z,100
2022-10-10T00:54:36.405Z,100
2022-10-10T00:55:36.297Z,100
2022-10-10T00:56:36.397Z,100
2022-10-10T00:57:36.269Z,100
2022-10-10T00:58:36.307Z,100
2022-10-10T00:59:36.332Z,100
2022-10-10T01:00:36.338Z,100
2022-10-10T01:01:36.314Z,100
2022-10-10T01:02:36.346Z,100
2022-10-10T01:03:36.367Z,100
2022-10-10T01:04:36.307Z,100
2022-10-10T01:05:36.358Z,100
2022-10-10T01:06:36.280Z,100
2022-10-10T01:07:36.277Z,100
2022-10-10T01:08:36.389Z,100
2022-10-10T01:09:36.400Z,100
2022-10-10T01:10:36.274Z,100
2022-10-10T01:11:36.300Z,100
2022-10-10T01:12:36.307Z,100
2022-10-10T01:13:36.336Z,100
2022-10-10T01:14:36.325Z,100
2022-10-10T01:15:36.276Z,100
2022-10-10T01:16:36.428Z,100
2022-10-10T01:17:36.349Z,100
2022-10-10T01:18:36.361Z,100
2022-10-10T01:19:36.297Z,100
2022-10-10T01:20:36.276Z,100
2022-10-10T01:21:36.274Z,100
2022-10-10T01:22:36.358Z,100
2022-10-10T01:23:36.379Z,100
2022-10-10T01:24:36.339Z,100
2022-10-10T01:25:36.417Z,100
2022-10-10T01:26:36.302Z,100
2022-10-10T01:27:36.309Z,100
2022-10-10T01:28:36.322Z,100
2022-10-10T01:29:36.286Z,100
2022-10-10T01:30:36.438Z,100
2022-10-10T01:31:36.317Z,100
2022-10-10T01:32:36.348Z,100
2022-10-10T01:33:36.331Z,100
2022-10-10T01:34:36.291Z,100
2022-10-10T01:35:36.271Z,100
2022-10-10T01:36:36.285Z,100
2022-10-10T01:37:36.267Z,100
2022-10-10T01:38:36.378Z,100
2022-10-10T01:39:36.403Z,100
2022-10-10T01:40:36.378Z,100
2022-10-10T01:41:36.281Z,100
2022-10-10T01:42:36.285Z,100
2022-10-10T01:43:36.285Z,100
2022-10-10T01:44:36.456Z,100
2022-10-10T01:45:36.325Z,100
2022-10-10T01:46:36.286Z,100
2022-10-10T01:47:36.434Z,100
2022-10-10T01:48:36.393Z,100
2022-10-10T01:49:36.356Z,100
2022-10-10T01:50:36.349Z,100
2022-10-10T01:51:36.361Z,100
2022-10-10T01:52:36.362Z,100
2022-10-10T01:53:36.273Z,100
2022-10-10T01:54:36.395Z,100
2022-10-10T01:55:36.382Z,100
2022-10-10T01:56:36.396Z,100
2022-10-10T01:57:36.296Z,100
2022-10-10T01:58:36.270Z,100
2022-10-10T01:59:36.328Z,100
2022-10-10T02:00:36.332Z,100
2022-10-10T02:01:36.348Z,100
2022-10-10T02:02:36.275Z,100
2022-10-10T02:03:36.458Z,100
2022-10-10T02:04:36.347Z,100
2022-10-10T02:05:36.357Z,100
2022-10-10T02:06:36.360Z,100
2022-10-10T02:07:36.357Z,100
2022-10-10T02:08:36.273Z,100
2022-10-10T02:09:36.392Z,100
2022-10-10T02:10:36.395Z,100
2022-10-10T02:11:36.396Z,100
2022-10-10T02:12:36.400Z,100
2022-10-10T02:13:36.270Z,100
2022-10-10T02:14:36.321Z,100
2022-10-10T02:15:36.302Z,100
2022-10-10T02:16:36.273Z,100
2022-10-10T02:17:36.320Z,100
2022-10-10T02:18:36.343Z,100
2022-10-10T02:19:36.349Z,100
2022-10-10T02:20:36.341Z,100
2022-10-10T02:21:36.348Z,100
2022-10-10T02:22:36.350Z,100
2022-10-10T02:23:36.356Z,100
2022-10-10T02:24:36.292Z,100
2022-10-10T02:25:36.302Z,100
2022-10-10T02:26:36.382Z,100
2022-10-10T02:27:36.323Z,100
2022-10-10T02:28:36.375Z,100
2022-10-10T02:29:36.430Z,100
2022-10-10T02:30:36.309Z,100
2022-10-10T02:31:36.309Z,100
2022-10-10T02:32:36.327Z,100
2022-10-10T02:33:36.354Z,100
2022-10-10T02:34:36.349Z,100
2022-10-10T02:35:36.318Z,100
2022-10-10T02:36:36.358Z,100
2022-10-10T02:37:36.361Z,100
2022-10-10T02:38:36.362Z,100
2022-10-10T02:39:36.291Z,100
2022-10-10T02:40:36.335Z,100
2022-10-10T02:41:36.381Z,100
2022-10-10T02:42:36.328Z,100
2022-10-10T02:43:36.387Z,100
2022-10-10T02:44:36.318Z,100
2022-10-10T02:45:36.302Z,100
2022-10-10T02:46:36.331Z,100
2022-10-10T02:47:36.328Z,100
2022-10-10T02:48:36.341Z,100
2022-10-10T02:49:36.357Z,100
2022-10-10T02:50:36.332Z,100
2022-10-10T02:51:36.293Z,100
2022-10-10T02:52:36.351Z,100
2022-10-10T02:53:36.284Z,100
2022-10-10T02:54:36.382Z,100
2022-10-10T02:55:36.367Z,100
2022-10-10T02:56:36.382Z,100
2022-10-10T02:57:36.385Z,100
2022-10-10T02:58:36.400Z,100
2022-10-10T02:59:36.293Z,100
2022-10-10T03:00:36.442Z,100
2022-10-10T03:01:36.363Z,100
2022-10-10T03:02:36.313Z,100
2022-10-10T03:03:36.343Z,100
2022-10-10T03:04:36.292Z,100
2022-10-10T03:05:36.350Z,100
2022-10-10T03:06:36.307Z,100
2022-10-10T03:07:36.357Z,100
2022-10-10T03:08:36.389Z,100
2022-10-10T03:09:36.381Z,100
2022-10-10T03:10:36.369Z,100
2022-10-10T03:11:36.380Z,100
2022-10-10T03:12:36.381Z,100
2022-10-10T03:13:36.323Z,100
2022-10-10T03:14:36.427Z,100
2022-10-10T03:15:36.325Z,100
2022-10-10T03:16:36.320Z,100
2022-10-10T03:17:36.301Z,100
2022-10-10T03:18:36.307Z,100
2022-10-10T03:19:36.356Z,100
2022-10-10T03:20:36.349Z,100
2022-10-10T03:21:36.342Z,100
2022-10-10T03:22:36.352Z,100
2022-10-10T03:23:36.353Z,100
2022-10-10T03:24:36.388Z,100
2022-10-10T03:25:36.264Z,100
2022-10-10T03:26:36.377Z,100
2022-10-10T03:27:36.374Z,100
2022-10-10T03:28:36.492Z,100
2022-10-10T03:29:36.343Z,100
2022-10-10T03:30:36.280Z,100
2022-10-10T03:31:36.303Z,100
2022-10-10T03:32:36.278Z,100
2022-10-10T03:33:36.458Z,100
2022-10-10T03:34:36.351Z,100
2022-10-10T03:35:36.337Z,100
2022-10-10T03:36:36.324Z,100
2022-10-10T03:37:36.343Z,100
2022-10-10T03:38:36.348Z,100
2022-10-10T03:39:36.377Z,100
2022-10-10T03:40:36.286Z,100
2022-10-10T03:41:36.367Z,100
2022-10-10T03:42:36.291Z,100
2022-10-10T03:43:36.280Z,100
2022-10-10T03:44:36.352Z,100
2022-10-10T03:45:36.313Z,100
2022-10-10T03:46:36.303Z,100
2022-10-10T03:47:36.284Z,100
2022-10-10T03:48:36.313Z,100
2022-10-10T03:49:36.348Z,100
2022-10-10T03:50:36.421Z,100
2022-10-10T03:51:36.269Z,100
2022-10-10T03:52:36.343Z,100
2022-10-10T03:53:36.343Z,100
2022-10-10T03:54:36.369Z,100
2022-10-10T03:55:36.294Z,100
2022-10-10T03:56:36.378Z,100
2022-10-10T03:57:36.283Z,100
2022-10-10T03:58:36.381Z,100
2022-10-10T03:59:36.303Z,100
2022-10-10T04:00:36.397Z,100
2022-10-10T04:01:36.327Z,100
2022-10-10T04:02:36.309Z,100
2022-10-10T04:03:36.340Z,100
2022-10-10T04:04:36.444Z,100
2022-10-10T04:05:36.334Z,100
2022-10-10T04:06:36.331Z,100
2022-10-10T04:07:36.334Z,100
2022-10-10T04:08:36.315Z,100
2022-10-10T04:09:36.374Z,100
2022-10-10T04:10:36.289Z,100
2022-10-10T04:11:36.376Z,100
2022-10-10T04:12:36.370Z,100
2022-10-10T04:13:36.401Z,100
2022-10-10T04:14:36.301Z,100
2022-10-10T04:15:36.391Z,100
2022-10-10T04:16:36.400Z,100
2022-10-10T04:17:36.401Z,100
2022-10-10T04:18:36.331Z,100
2022-10-10T04:19:36.361Z,100
2022-10-10T04:20:36.325Z,100
2022-10-10T04:21:36.301Z,100
2022-10-10T04:22:36.283Z,100
2022-10-10T04:23:36.336Z,100
2022-10-10T04:24:36.379Z,100
2022-10-10T04:25:36.359Z,100
2022-10-10T04:26:36.275Z,100
2022-10-10T04:27:36.377Z,100
2022-10-10T04:28:36.456Z,100
2022-10-10T04:29:36.408Z,100
2022-10-10T04:30:36.391Z,100
2022-10-10T04:31:36.400Z,100
2022-10-10T04:32:36.406Z,100
2022-10-10T04:33:36.310Z,100
2022-10-10T04:34:36.320Z,100
2022-10-10T04:35:37.372Z,100
2022-10-10T04:36:36.267Z,100
2022-10-10T04:37:36.332Z,100
2022-10-10T04:38:36.339Z,100
2022-10-10T04:39:36.336Z,100
2022-10-10T04:40:36.355Z,100
2022-10-10T04:41:36.278Z,100
2022-10-10T04:42:36.376Z,100
2022-10-10T04:43:36.337Z,100
2022-10-10T04:44:36.304Z,100
2022-10-10T04:45:37.667Z,100
2022-10-10T04:46:36.405Z,100
2022-10-10T04:47:36.399Z,100
2022-10-10T04:48:36.321Z,100
2022-10-10T04:49:36.335Z,100
2022-10-10T04:50:36.334Z,100
2022-10-10T04:51:36.345Z,100
2022-10-10T04:52:36.330Z,100
2022-10-10T04:53:36.286Z,100
2022-10-10T04:54:36.343Z,100
2022-10-10T04:55:36.366Z,100
2022-10-10T04:56:36.360Z,100
2022-10-10T04:57:36.381Z,100
2022-10-10T04:58:36.301Z,100
2022-10-10T04:59:36.396Z,100
2022-10-10T05:00:36.398Z,100
2022-10-10T05:01:36.373Z,100
2022-10-10T05:02:36.347Z,100
2022-10-10T05:03:36.433Z,100
2022-10-10T05:04:36.336Z,100
2022-10-10T05:05:36.326Z,100
2022-10-10T05:06:36.294Z,100
2022-10-10T05:07:36.336Z,100
2022-10-10T05:08:36.362Z,100
2022-10-10T05:09:36.376Z,100
2022-10-10T05:10:36.346Z,100
2022-10-10T05:11:36.357Z,100
2022-10-10T05:12:36.368Z,100
2022-10-10T05:13:36.391Z,100
2022-10-10T05:14:36.293Z,100
2022-10-10T05:15:36.293Z,100
2022-10-10T05:16:36.270Z,100
2022-10-10T05:17:36.287Z,100
2022-10-10T05:18:36.356Z,100
2022-10-10T05:19:36.306Z,100
2022-10-10T05:20:36.280Z,100
2022-10-10T05:21:36.348Z,100
2022-10-10T05:22:36.332Z,100
2022-10-10T05:23:36.339Z,100
2022-10-10T05:24:36.366Z,100
2022-10-10T05:25:36.355Z,100
2022-10-10T05:26:40.908Z,100
2022-10-10T05:27:36.282Z,100
2022-10-10T05:28:36.320Z,100
2022-10-10T05:29:36.392Z,100
2022-10-10T05:30:36.394Z,100
2022-10-10T05:31:36.392Z,100
2022-10-10T05:32:36.290Z,100
2022-10-10T05:33:36.429Z,100
2022-10-10T05:34:36.431Z,100
2022-10-10T05:35:36.310Z,100
2022-10-10T05:36:36.424Z,100
2022-10-10T05:37:36.333Z,100
2022-10-10T05:38:36.331Z,100
2022-10-10T05:39:36.332Z,100
2022-10-10T05:40:36.373Z,100
2022-10-10T05:41:36.433Z,100
2022-10-10T05:42:36.416Z,100
2022-10-10T05:43:36.455Z,100
2022-10-10T05:44:36.530Z,100
2022-10-10T05:45:36.569Z,100
2022-10-10T05:46:36.385Z,100
2022-10-10T05:47:36.288Z,100
2022-10-10T05:48:36.316Z,100
2022-10-10T05:49:36.440Z,100
2022-10-10T05:50:36.320Z,100
2022-10-10T05:51:36.275Z,100
2022-10-10T05:52:36.308Z,100
2022-10-10T05:53:36.328Z,100
2022-10-10T05:54:36.299Z,100
2022-10-10T05:55:36.282Z,100
2022-10-10T05:56:36.460Z,100
2022-10-10T05:57:36.325Z,100
2022-10-10T05:58:36.368Z,100
2022-10-10T05:59:36.385Z,100
2022-10-10T06:00:36.381Z,100
2022-10-10T06:01:36.386Z,100
2022-10-10T06:02:36.383Z,100
2022-10-10T06:03:36.318Z,100
2022-10-10T06:04:36.353Z,100
2022-10-10T06:05:36.335Z,100
2022-10-10T06:06:36.287Z,100
2022-10-10T06:08:02.545Z,100
2022-10-10T06:08:36.338Z,100
2022-10-10T06:09:36.356Z,100
2022-10-10T06:10:36.346Z,100
2022-10-10T06:11:36.350Z,100
2022-10-10T06:12:36.334Z,100
2022-10-10T06:13:36.315Z,100
2022-10-10T06:14:36.305Z,100
2022-10-10T06:15:36.392Z,100
2022-10-10T06:16:36.388Z,100
2022-10-10T06:17:36.386Z,100
2022-10-10T06:18:36.414Z,100
2022-10-10T06:19:36.297Z,100
2022-10-10T06:20:36.411Z,100
2022-10-10T06:21:36.432Z,100
2022-10-10T06:22:36.320Z,100
2022-10-10T06:23:36.355Z,100
2022-10-10T06:24:36.357Z,100
2022-10-10T06:25:40.558Z,100
2022-10-10T06:26:36.298Z,100
2022-10-10T06:27:36.351Z,100
2022-10-10T06:28:36.402Z,100
2022-10-10T06:29:36.510Z,100
2022-10-10T06:30:36.393Z,100
2022-10-10T06:31:36.390Z,100
2022-10-10T06:32:36.289Z,100
2022-10-10T06:33:36.470Z,100
2022-10-10T06:34:36.416Z,100
2022-10-10T06:35:36.303Z,100
2022-10-10T06:36:36.339Z,100
2022-10-10T06:37:36.321Z,100
2022-10-10T06:38:36.286Z,100
2022-10-10T06:39:36.308Z,100
2022-10-10T06:40:36.451Z,100
2022-10-10T06:41:36.355Z,100
2022-10-10T06:42:36.353Z,100
2022-10-10T06:43:36.348Z,100
2022-10-10T06:44:36.403Z,100
2022-10-10T06:45:36.274Z,100
2022-10-10T06:46:36.386Z,100
2022-10-10T06:47:36.388Z,100
2022-10-10T06:48:36.407Z,100
2022-10-10T06:49:36.314Z,100
2022-10-10T06:50:36.309Z,100
2022-10-10T06:51:36.365Z,100
2022-10-10T06:52:36.316Z,100
2022-10-10T06:53:36.324Z,100
2022-10-10T06:54:36.388Z,100
2022-10-10T06:55:36.345Z,100
2022-10-10T06:56:36.351Z,100
2022-10-10T06:57:36.337Z,100
2022-10-10T06:58:36.282Z,100
2022-10-10T06:59:36.363Z,100
2022-10-10T07:00:36.376Z,100
2022-10-10T07:01:36.333Z,100
2022-10-10T07:02:36.295Z,100
2022-10-10T07:03:36.413Z,100
2022-10-10T07:04:36.318Z,100
2022-10-10T07:05:36.406Z,100
2022-10-10T07:06:36.311Z,100
2022-10-10T07:07:36.414Z,100
2022-10-10T07:08:36.429Z,100
2022-10-10T07:09:36.353Z,100
2022-10-10T07:10:36.330Z,100
2022-10-10T07:11:36.335Z,100
2022-10-10T07:12:43.513Z,100
2022-10-10T07:13:36.346Z,100
2022-10-10T07:14:36.312Z,100
2022-10-10T07:15:36.361Z,100
2022-10-10T07:16:36.377Z,100
2022-10-10T07:17:36.372Z,100
2022-10-10T07:18:36.403Z,100
2022-10-10T07:19:36.401Z,100
2022-10-10T07:20:36.395Z,100
2022-10-10T07:21:36.305Z,100
2022-10-10T07:22:36.415Z,100
2022-10-10T07:23:36.422Z,100
2022-10-10T07:24:36.287Z,100
2022-10-10T07:25:36.353Z,100
2022-10-10T07:26:36.340Z,100
2022-10-10T07:27:36.353Z,100
2022-10-10T07:28:36.322Z,100
2022-10-10T07:29:36.297Z,100
2022-10-10T07:30:36.368Z,100
2022-10-10T07:31:36.378Z,100
2022-10-10T07:32:36.380Z,100
2022-10-10T07:33:36.395Z,100
2022-10-10T07:34:36.415Z,100
2022-10-10T07:35:36.280Z,100
2022-10-10T07:36:36.414Z,100
2022-10-10T07:37:36.278Z,100
2022-10-10T07:38:36.353Z,100
2022-10-10T07:39:36.356Z,100
2022-10-10T07:40:36.286Z,100
2022-10-10T07:41:36.345Z,100
2022-10-10T07:42:36.338Z,100
2022-10-10T07:43:36.280Z,100
2022-10-10T07:44:36.372Z,100
2022-10-10T07:45:36.380Z,100
2022-10-10T07:46:36.335Z,100
2022-10-10T07:47:36.376Z,100
2022-10-10T07:48:36.406Z,100
2022-10-10T07:49:36.402Z,100
2022-10-10T07:50:36.301Z,100
2022-10-10T07:51:36.276Z,100
2022-10-10T07:52:36.304Z,100
2022-10-10T07:53:36.320Z,100
2022-10-10T07:54:36.443Z,100
2022-10-10T07:55:36.319Z,100
2022-10-10T07:56:36.308Z,100
2022-10-10T07:57:36.337Z,100
2022-10-10T07:58:36.343Z,100
2022-10-10T07:59:36.318Z,100
2022-10-10T08:00:36.360Z,100
2022-10-10T08:01:36.422Z,100
2022-10-10T08:02:36.373Z,100
2022-10-10T08:03:36.322Z,100
2022-10-10T08:04:36.408Z,100
2022-10-10T08:05:36.410Z,100
2022-10-10T08:06:36.312Z,100
2022-10-10T08:07:36.302Z,100
2022-10-10T08:08:41.777Z,100
2022-10-10T08:09:36.444Z,100
2022-10-10T08:10:36.434Z,100
2022-10-10T08:11:36.294Z,100
2022-10-10T08:12:36.293Z,100
2022-10-10T08:13:36.288Z,100
2022-10-10T08:14:36.378Z,100
2022-10-10T08:15:36.356Z,100
2022-10-10T08:16:36.292Z,99.9
2022-10-10T08:17:36.365Z,98.9
2022-10-10T08:18:36.396Z,98.7
2022-10-10T08:19:36.420Z,97.8
2022-10-10T08:20:36.399Z,98.9
2022-10-10T08:21:36.289Z,98
2022-10-10T08:22:36.402Z,98
2022-10-10T08:23:36.317Z,99.2
2022-10-10T08:24:36.338Z,98.2
2022-10-10T08:25:36.337Z,98
2022-10-10T08:26:36.290Z,98.3
2022-10-10T08:27:36.308Z,98.4
2022-10-10T08:28:36.484Z,99.7
2022-10-10T08:29:36.398Z,99.7
2022-10-10T08:30:36.353Z,97.2
2022-10-10T08:31:36.356Z,96.1
2022-10-10T08:32:36.378Z,94.6
2022-10-10T08:33:36.407Z,95.3
2022-10-10T08:34:36.410Z,95.6
2022-10-10T08:35:36.337Z,94.8
2022-10-10T08:36:36.402Z,94.3
2022-10-10T08:37:37.468Z,95.5
2022-10-10T08:38:36.291Z,98.4
2022-10-10T08:39:36.320Z,98.6
2022-10-10T08:40:36.341Z,97.7
2022-10-10T08:41:36.331Z,98.4
2022-10-10T08:42:36.295Z,97.7
2022-10-10T08:43:36.306Z,97.4
2022-10-10T08:44:36.357Z,97
2022-10-10T08:45:36.366Z,97.3
2022-10-10T08:46:36.352Z,97.5
2022-10-10T08:47:36.369Z,98
2022-10-10T08:48:36.352Z,99.7
2022-10-10T08:49:36.398Z,100
2022-10-10T08:50:36.405Z,99.5
2022-10-10T08:51:36.390Z,100
2022-10-10T08:52:36.286Z,98.4
2022-10-10T08:53:36.293Z,98.3
2022-10-10T08:54:36.356Z,97.8
2022-10-10T08:55:36.295Z,96.9
2022-10-10T08:56:36.435Z,97.2
2022-10-10T08:57:36.435Z,97.6
2022-10-10T08:58:36.348Z,98.3
2022-10-10T08:59:36.383Z,98.6
2022-10-10T09:00:36.361Z,96.8
2022-10-10T09:01:36.369Z,96.6
2022-10-10T09:03:36.391Z,96.2
2022-10-10T09:04:36.402Z,96.9
2022-10-10T09:05:36.298Z,97.3
2022-10-10T09:06:36.386Z,97.9
2022-10-10T09:07:36.300Z,99.2
2022-10-10T09:08:36.413Z,98.4
2022-10-10T09:09:36.332Z,98.3
2022-10-10T09:10:36.316Z,99.4
2022-10-10T09:11:36.321Z,99.9
2022-10-10T09:12:36.432Z,100
2022-10-10T09:13:36.301Z,100
2022-10-10T09:14:36.362Z,99.9
2022-10-10T09:15:36.295Z,100
2022-10-10T09:16:36.384Z,100
2022-10-10T09:17:36.377Z,100
2022-10-10T09:18:36.394Z,99.2
2022-10-10T09:19:36.508Z,99.8
2022-10-10T09:20:36.348Z,98.6
2022-10-10T09:21:36.393Z,97.5
2022-10-10T09:22:36.346Z,98.5
2022-10-10T09:23:36.409Z,99.2
2022-10-10T09:24:39.916Z,98.9
2022-10-10T09:25:36.300Z,100
2022-10-10T09:26:36.318Z,100
2022-10-10T09:27:36.435Z,100
2022-10-10T09:28:36.495Z,100
2022-10-10T09:29:36.397Z,100
2022-10-10T09:30:36.346Z,100
2022-10-10T09:31:36.356Z,100
2022-10-10T09:32:36.340Z,100
2022-10-10T09:33:36.388Z,100
2022-10-10T09:34:36.503Z,100
2022-10-10T09:35:36.379Z,100
2022-10-10T09:36:36.389Z,100
2022-10-10T09:37:46.928Z,100
2022-10-10T09:38:36.520Z,100
2022-10-10T09:39:36.570Z,100
2022-10-10T09:40:36.412Z,100
2022-10-10T09:41:36.690Z,100
2022-10-10T09:42:36.322Z,100
2022-10-10T09:43:36.349Z,100
2022-10-10T09:44:36.361Z,100
2022-10-10T09:45:36.293Z,99
2022-10-10T09:46:36.301Z,96.8
2022-10-10T09:47:36.382Z,95.9
2022-10-10T09:48:36.382Z,95.2
2022-10-10T09:49:36.317Z,96.6
2022-10-10T09:50:39.218Z,96.7
2022-10-10T09:51:36.385Z,97.2
2022-10-10T09:52:36.399Z,95.7
2022-10-10T09:53:36.400Z,96.2
2022-10-10T09:54:36.411Z,93.8
2022-10-10T09:55:36.306Z,92.2
2022-10-10T09:56:36.300Z,92.9
2022-10-10T09:57:36.378Z,91.3
2022-10-10T09:58:36.357Z,87.6
2022-10-10T09:59:36.364Z,87.1
2022-10-10T10:00:36.556Z,87.1
2022-10-10T10:01:36.446Z,88.2
2022-10-10T10:02:36.298Z,87.9
2022-10-10T10:03:36.376Z,88.4
2022-10-10T10:04:36.393Z,89.4
2022-10-10T10:05:36.376Z,93
2022-10-10T10:06:36.388Z,92
2022-10-10T10:07:36.420Z,92.7
2022-10-10T10:08:36.390Z,90.9
2022-10-10T10:09:36.416Z,92.8
2022-10-10T10:10:36.306Z,90.5
2022-10-10T10:11:36.303Z,86.9
2022-10-10T10:12:36.316Z,86.9
2022-10-10T10:13:36.321Z,86.2
2022-10-10T10:14:36.454Z,85.8
2022-10-10T10:15:36.402Z,85.3
2022-10-10T10:16:36.341Z,85.6
2022-10-10T10:17:36.339Z,83.8
2022-10-10T10:18:36.467Z,84.4
2022-10-10T10:19:36.612Z,85.4
2022-10-10T10:20:36.518Z,87.2
2022-10-10T10:21:36.458Z,86.3
2022-10-10T10:22:36.385Z,86.3
2022-10-10T10:23:36.559Z,85.6
2022-10-10T10:24:36.697Z,84.1
2022-10-10T10:25:36.697Z,84.2
2022-10-10T10:26:36.723Z,82.7
2022-10-10T10:27:36.304Z,82.6
2022-10-10T10:28:36.420Z,82.8
2022-10-10T10:29:36.616Z,77.6
2022-10-10T10:30:36.443Z,78.6
2022-10-10T10:31:36.338Z,77.1
2022-10-10T10:32:36.355Z,77.8
2022-10-10T10:33:36.379Z,77
2022-10-10T10:34:36.379Z,76.5
2022-10-10T10:35:36.301Z,76
2022-10-10T10:36:36.381Z,72.3
2022-10-10T10:37:36.349Z,72.6
2022-10-10T10:38:36.428Z,72.3
2022-10-10T10:39:36.424Z,72
2022-10-10T10:40:36.310Z,72.7
2022-10-10T10:41:36.324Z,71
2022-10-10T10:42:36.312Z,71.1
2022-10-10T10:43:36.362Z,72.3
2022-10-10T10:44:36.330Z,73.5
2022-10-10T10:45:36.351Z,72.4
2022-10-10T10:46:36.355Z,71.5
2022-10-10T10:48:36.330Z,69.2
2022-10-10T10:49:36.321Z,66.2
2022-10-10T10:50:36.290Z,66.4
2022-10-10T10:51:36.357Z,65.6
2022-10-10T10:52:36.314Z,63.3
2022-10-10T10:53:36.352Z,62.4
2022-10-10T10:54:40.206Z,62.5
2022-10-10T10:55:39.377Z,64.2
2022-10-10T10:56:36.317Z,62.2
2022-10-10T10:57:49.083Z,60.2
2022-10-10T10:59:09.937Z,63.1
2022-10-10T11:00:20.499Z,64.7
2022-10-10T11:01:20.329Z,63.5
2022-10-10T11:01:56.070Z,63.5
2022-10-10T11:02:55.325Z,63.9
2022-10-10T11:05:17.332Z,61
2022-10-10T11:05:18.050Z,60.2
2022-10-10T11:05:41.354Z,60
2022-10-10T11:06:41.991Z,60.9
2022-10-10T11:07:36.447Z,60.3
2022-10-10T11:08:36.493Z,59.4
2022-10-10T11:09:51.829Z,58.9
2022-10-10T11:10:36.404Z,56.6
2022-10-10T11:11:36.419Z,60.2
2022-10-10T11:12:36.419Z,56.4
2022-10-10T11:13:36.419Z,55.1
2022-10-10T11:14:36.347Z,54.3
2022-10-10T11:16:04.766Z,55.1
2022-10-10T11:16:47.857Z,54.7
2022-10-10T11:17:37.431Z,54.4
2022-10-10T11:18:36.369Z,53.2
2022-10-10T11:19:36.382Z,54.2
2022-10-10T11:20:36.369Z,54.3
2022-10-10T11:21:36.298Z,54
2022-10-10T11:22:36.388Z,54.3
2022-10-10T11:23:36.391Z,52.5
2022-10-10T11:24:36.414Z,51.9
2022-10-10T11:25:36.409Z,51.1
2022-10-10T11:26:36.405Z,50.7
2022-10-10T11:27:36.414Z,50.8
2022-10-10T11:28:36.576Z,49.7
2022-10-10T11:29:36.450Z,49.9
2022-10-10T11:30:36.327Z,49.6
2022-10-10T11:31:36.337Z,50.1
2022-10-10T11:32:36.453Z,49
2022-10-10T11:33:36.400Z,49.7
2022-10-10T11:34:36.379Z,50.2
2022-10-10T11:35:36.313Z,50.1
2022-10-10T11:36:36.311Z,49.7
2022-10-10T11:37:36.391Z,48
2022-10-10T11:38:36.321Z,48.8
2022-10-10T11:39:36.410Z,49.2
2022-10-10T11:40:36.648Z,49.6
2022-10-10T11:41:36.314Z,48.8
2022-10-10T11:42:36.769Z,48.4
2022-10-10T11:43:36.756Z,49.1
2022-10-10T11:44:36.787Z,49.1
2022-10-10T11:45:36.319Z,50.5
2022-10-10T11:46:36.321Z,49.1
2022-10-10T11:47:36.448Z,48.5
2022-10-10T11:48:36.369Z,48.9
2022-10-10T11:49:36.343Z,47.7
2022-10-10T11:50:36.419Z,47.5
2022-10-10T11:51:36.366Z,46.7
2022-10-10T11:52:36.317Z,47.3
2022-10-10T11:53:36.378Z,46.7
2022-10-10T11:54:36.339Z,45.9
2022-10-10T11:55:36.361Z,45.6
2022-10-10T11:56:36.397Z,45.5
2022-10-10T11:57:36.405Z,44.1
2022-10-10T11:58:36.403Z,46.1
2022-10-10T11:59:36.435Z,44.9
2022-10-10T12:00:36.302Z,42.6
2022-10-10T12:01:36.306Z,42.2
2022-10-10T12:02:36.332Z,42.3
2022-10-10T12:03:36.459Z,42.3
2022-10-10T12:04:36.547Z,42.6
2022-10-10T12:05:36.358Z,42.2
2022-10-10T12:06:36.361Z,41.7
2022-10-10T12:07:36.390Z,41.5
2022-10-10T12:08:36.380Z,42.5
2022-10-10T12:09:36.388Z,41.6
2022-10-10T12:10:36.386Z,40.6
2022-10-10T12:11:36.397Z,39.4
2022-10-10T12:12:36.464Z,37.9
2022-10-10T12:13:36.561Z,39.7
2022-10-10T12:14:36.527Z,41
2022-10-10T12:15:41.788Z,40.9
2022-10-10T12:16:36.483Z,42.7
2022-10-10T12:17:36.433Z,42.1
2022-10-10T12:18:36.740Z,42.2
2022-10-10T12:19:36.676Z,42
2022-10-10T12:20:36.340Z,41.4
2022-10-10T12:21:36.515Z,41.8
2022-10-10T12:22:36.380Z,41.2
2022-10-10T12:23:36.329Z,41.1
2022-10-10T12:24:40.924Z,42.3
2022-10-10T12:25:36.391Z,44.9
2022-10-10T12:26:36.720Z,45.3
2022-10-10T12:27:36.405Z,45.2
2022-10-10T12:28:36.486Z,43.4
2022-10-10T12:29:36.447Z,43
2022-10-10T12:30:36.423Z,44.6
2022-10-10T12:31:36.431Z,43.8
2022-10-10T12:32:36.319Z,45.1
2022-10-10T12:33:36.348Z,45
2022-10-10T12:34:36.407Z,45.4
2022-10-10T12:35:36.387Z,46.3
2022-10-10T12:36:36.358Z,46.7
2022-10-10T12:37:36.325Z,45.1
2022-10-10T12:38:36.367Z,44.5
2022-10-10T12:39:36.404Z,46
2022-10-10T12:40:36.386Z,44.4
2022-10-10T12:41:36.390Z,45.6
2022-10-10T12:42:36.411Z,45.5
2022-10-10T12:43:36.409Z,44.6
2022-10-10T12:44:36.437Z,44.7
2022-10-10T12:45:36.323Z,44.5
2022-10-10T12:46:36.325Z,43.4
2022-10-10T12:48:00.272Z,42.1
2022-10-10T12:48:36.308Z,40.8
2022-10-10T12:49:36.356Z,39.6
2022-10-10T12:50:36.384Z,41.5
2022-10-10T12:51:36.371Z,42.1
2022-10-10T12:52:36.336Z,43.1
2022-10-10T12:53:36.336Z,45.9
2022-10-10T12:54:36.364Z,47.9
2022-10-10T12:55:36.357Z,47.2
2022-10-10T12:56:36.329Z,46.3
2022-10-10T12:57:36.333Z,46.4
2022-10-10T12:58:36.368Z,47.3
2022-10-10T12:59:36.411Z,46.8
2022-10-10T13:00:36.326Z,46.7
2022-10-10T13:01:36.411Z,47.7
2022-10-10T13:02:36.334Z,47.8
2022-10-10T13:03:36.326Z,47.4
2022-10-10T13:04:36.344Z,49.6
2022-10-10T13:05:36.374Z,50.1
2022-10-10T13:06:36.389Z,50.2
2022-10-10T13:07:36.332Z,49.7
2022-10-10T13:08:36.330Z,49.8
2022-10-10T13:09:36.353Z,50
2022-10-10T13:10:36.327Z,48.8
2022-10-10T13:11:36.336Z,49.3
2022-10-10T13:12:36.332Z,48.9
2022-10-10T13:13:36.400Z,49.2
2022-10-10T13:14:36.391Z,50.2
2022-10-10T13:15:36.332Z,50
2022-10-10T13:16:36.338Z,49.6
2022-10-10T13:17:36.327Z,49.6
2022-10-10T13:18:36.330Z,50.8
2022-10-10T13:19:36.432Z,51.7
2022-10-10T13:20:36.326Z,51
2022-10-10T13:21:36.382Z,51.4
2022-10-10T13:22:36.382Z,51
2022-10-10T13:23:36.327Z,51.3
2022-10-10T13:24:36.357Z,52.2
2022-10-10T13:25:36.368Z,52.8
2022-10-10T13:26:36.444Z,52.9
2022-10-10T13:27:36.354Z,52.3
2022-10-10T13:28:36.392Z,50.9
2022-10-10T13:29:36.496Z,51.7
2022-10-10T13:30:36.417Z,51.8
2022-10-10T13:31:36.343Z,51.8
2022-10-10T13:32:36.348Z,52.4
2022-10-10T13:33:36.389Z,50.6
2022-10-10T13:34:36.355Z,51.2
2022-10-10T13:35:36.338Z,48.5
2022-10-10T13:36:36.339Z,49.7
2022-10-10T13:37:36.416Z,49
2022-10-10T13:38:36.335Z,49.8
2022-10-10T13:39:36.490Z,49.6